Terminal Aerodrome Forecast
Issued by NWS

Home | Current Version | Previous Version | Text Only | Print | Product List | Glossary On
Versions: 1 2 3 4 5 6 7 8 9 10 11 12 13 14 15 16 17 18 19 20 21 22 23 24 25
000
FTUS43 KPAH 151121
TAFCGI
TAF
KCGI 151121Z 1512/1612 20010KT 6SM -SHRA BR SCT025 OVC040
      TEMPO 1515/1519 BKN025
     FM151900 24009KT P6SM OVC015
     FM160000 28007KT P6SM OVC020
     FM160100 30005KT P6SM SKC=

USA.gov is the U.S. government's official web portal to all federal, state and local government web resources and services.